sensor_id;sensor_type;location;lat;lon;timestamp;P1;durP1;ratioP1;P2;durP2;ratioP2
9729;SDS011;4904;49.152;11.004;2022-08-19T00:01:51;12.38;;;11.35;;
9729;SDS011;4904;49.152;11.004;2022-08-19T00:04:20;12.38;;;11.27;;
9729;SDS011;4904;49.152;11.004;2022-08-19T00:06:48;12.80;;;11.80;;
9729;SDS011;4904;49.152;11.004;2022-08-19T00:09:16;13.27;;;12.18;;
9729;SDS011;4904;49.152;11.004;2022-08-19T00:11:44;14.40;;;13.20;;
9729;SDS011;4904;49.152;11.004;2022-08-19T00:14:13;13.43;;;12.18;;
9729;SDS011;4904;49.152;11.004;2022-08-19T00:16:42;13.25;;;12.13;;
9729;SDS011;4904;49.152;11.004;2022-08-19T00:19:12;13.15;;;12.05;;
9729;SDS011;4904;49.152;11.004;2022-08-19T00:21:39;14.00;;;12.60;;
9729;SDS011;4904;49.152;11.004;2022-08-19T00:24:06;13.48;;;12.23;;
9729;SDS011;4904;49.152;11.004;2022-08-19T00:26:34;13.55;;;12.18;;
9729;SDS011;4904;49.152;11.004;2022-08-19T00:29:05;13.32;;;12.20;;
9729;SDS011;4904;49.152;11.004;2022-08-19T00:31:35;14.80;;;13.57;;
9729;SDS011;4904;49.152;11.004;2022-08-19T00:34:02;14.00;;;12.80;;
9729;SDS011;4904;49.152;11.004;2022-08-19T00:36:29;14.30;;;13.10;;
9729;SDS011;4904;49.152;11.004;2022-08-19T00:38:57;13.02;;;11.55;;
9729;SDS011;4904;49.152;11.004;2022-08-19T00:41:24;13.75;;;12.63;;
9729;SDS011;4904;49.152;11.004;2022-08-19T00:46:43;14.35;;;13.25;;
9729;SDS011;4904;49.152;11.004;2022-08-19T00:49:12;13.38;;;12.10;;
9729;SDS011;4904;49.152;11.004;2022-08-19T00:51:43;15.15;;;13.73;;
9729;SDS011;4904;49.152;11.004;2022-08-19T00:54:12;15.38;;;13.85;;
9729;SDS011;4904;49.152;11.004;2022-08-19T00:56:40;15.10;;;13.63;;
9729;SDS011;4904;49.152;11.004;2022-08-19T00:59:08;16.02;;;14.45;;
9729;SDS011;4904;49.152;11.004;2022-08-19T01:01:35;15.20;;;14.00;;
9729;SDS011;4904;49.152;11.004;2022-08-19T01:04:04;14.65;;;13.38;;
9729;SDS011;4904;49.152;11.004;2022-08-19T01:06:31;16.20;;;14.75;;
9729;SDS011;4904;49.152;11.004;2022-08-19T01:08:58;15.43;;;14.02;;
9729;SDS011;4904;49.152;11.004;2022-08-19T01:11:25;15.07;;;13.82;;
9729;SDS011;4904;49.152;11.004;2022-08-19T01:13:53;16.13;;;14.48;;
9729;SDS011;4904;49.152;11.004;2022-08-19T01:16:21;15.40;;;13.88;;
9729;SDS011;4904;49.152;11.004;2022-08-19T01:18:51;14.93;;;13.50;;
9729;SDS011;4904;49.152;11.004;2022-08-19T01:21:21;14.43;;;13.23;;
9729;SDS011;4904;49.152;11.004;2022-08-19T01:23:53;15.45;;;14.07;;
9729;SDS011;4904;49.152;11.004;2022-08-19T01:26:21;14.68;;;13.35;;
9729;SDS011;4904;49.152;11.004;2022-08-19T01:28:53;14.32;;;13.23;;
9729;SDS011;4904;49.152;11.004;2022-08-19T01:31:23;13.75;;;12.48;;
9729;SDS011;4904;49.152;11.004;2022-08-19T01:33:55;15.10;;;13.70;;
9729;SDS011;4904;49.152;11.004;2022-08-19T01:36:24;14.80;;;13.35;;
9729;SDS011;4904;49.152;11.004;2022-08-19T01:38:57;15.00;;;13.70;;
9729;SDS011;4904;49.152;11.004;2022-08-19T01:41:24;15.55;;;14.00;;
9729;SDS011;4904;49.152;11.004;2022-08-19T01:43:52;14.15;;;12.90;;
9729;SDS011;4904;49.152;11.004;2022-08-19T01:46:20;15.15;;;13.95;;
9729;SDS011;4904;49.152;11.004;2022-08-19T01:48:47;14.35;;;13.10;;
9729;SDS011;4904;49.152;11.004;2022-08-19T01:51:14;14.25;;;13.07;;
9729;SDS011;4904;49.152;11.004;2022-08-19T01:53:41;14.63;;;13.40;;
9729;SDS011;4904;49.152;11.004;2022-08-19T01:56:10;13.60;;;12.40;;
9729;SDS011;4904;49.152;11.004;2022-08-19T01:58:38;15.52;;;14.13;;
9729;SDS011;4904;49.152;11.004;2022-08-19T02:01:07;15.98;;;14.45;;
9729;SDS011;4904;49.152;11.004;2022-08-19T02:03:34;16.05;;;14.65;;
9729;SDS011;4904;49.152;11.004;2022-08-19T02:06:01;15.35;;;14.15;;
9729;SDS011;4904;49.152;11.004;2022-08-19T02:08:30;16.60;;;15.20;;
9729;SDS011;4904;49.152;11.004;2022-08-19T02:10:59;15.88;;;14.40;;
9729;SDS011;4904;49.152;11.004;2022-08-19T02:13:27;15.93;;;14.52;;
9729;SDS011;4904;49.152;11.004;2022-08-19T02:15:54;16.05;;;14.80;;
9729;SDS011;4904;49.152;11.004;2022-08-19T02:18:22;16.23;;;14.93;;
9729;SDS011;4904;49.152;11.004;2022-08-19T02:20:49;15.63;;;14.27;;
9729;SDS011;4904;49.152;11.004;2022-08-19T02:23:16;15.43;;;14.10;;
9729;SDS011;4904;49.152;11.004;2022-08-19T02:25:45;16.40;;;15.10;;
9729;SDS011;4904;49.152;11.004;2022-08-19T02:28:13;16.50;;;15.00;;
9729;SDS011;4904;49.152;11.004;2022-08-19T02:30:41;15.82;;;14.52;;
9729;SDS011;4904;49.152;11.004;2022-08-19T02:33:08;17.52;;;16.02;;
9729;SDS011;4904;49.152;11.004;2022-08-19T02:35:35;17.17;;;15.73;;
9729;SDS011;4904;49.152;11.004;2022-08-19T02:38:02;19.17;;;17.23;;
9729;SDS011;4904;49.152;11.004;2022-08-19T02:40:50;18.95;;;16.88;;
9729;SDS011;4904;49.152;11.004;2022-08-19T02:43:18;19.77;;;18.08;;
9729;SDS011;4904;49.152;11.004;2022-08-19T02:45:48;20.23;;;18.48;;
9729;SDS011;4904;49.152;11.004;2022-08-19T02:48:16;18.92;;;17.23;;
9729;SDS011;4904;49.152;11.004;2022-08-19T02:50:44;19.17;;;17.58;;
9729;SDS011;4904;49.152;11.004;2022-08-19T02:53:12;19.40;;;17.70;;
9729;SDS011;4904;49.152;11.004;2022-08-19T02:55:44;19.77;;;17.70;;
9729;SDS011;4904;49.152;11.004;2022-08-19T02:58:13;18.50;;;16.95;;
9729;SDS011;4904;49.152;11.004;2022-08-19T03:00:42;20.42;;;18.63;;
9729;SDS011;4904;49.152;11.004;2022-08-19T03:03:11;19.25;;;17.55;;
9729;SDS011;4904;49.152;11.004;2022-08-19T03:05:39;20.77;;;18.90;;
9729;SDS011;4904;49.152;11.004;2022-08-19T03:08:06;20.15;;;18.48;;
9729;SDS011;4904;49.152;11.004;2022-08-19T03:10:39;20.13;;;18.42;;
9729;SDS011;4904;49.152;11.004;2022-08-19T03:13:07;20.00;;;18.40;;
9729;SDS011;4904;49.152;11.004;2022-08-19T03:15:34;20.05;;;18.33;;
9729;SDS011;4904;49.152;11.004;2022-08-19T03:18:00;20.58;;;18.67;;
9729;SDS011;4904;49.152;11.004;2022-08-19T03:20:29;20.20;;;18.40;;
9729;SDS011;4904;49.152;11.004;2022-08-19T03:22:56;21.27;;;19.23;;
9729;SDS011;4904;49.152;11.004;2022-08-19T03:25:23;22.40;;;20.15;;
9729;SDS011;4904;49.152;11.004;2022-08-19T03:27:50;21.48;;;19.48;;
9729;SDS011;4904;49.152;11.004;2022-08-19T03:30:17;21.83;;;19.80;;
9729;SDS011;4904;49.152;11.004;2022-08-19T03:32:43;21.95;;;19.92;;
9729;SDS011;4904;49.152;11.004;2022-08-19T03:35:10;22.83;;;20.85;;
9729;SDS011;4904;49.152;11.004;2022-08-19T03:37:39;22.85;;;20.65;;
9729;SDS011;4904;49.152;11.004;2022-08-19T03:40:06;23.23;;;21.13;;
9729;SDS011;4904;49.152;11.004;2022-08-19T03:42:33;22.88;;;20.33;;
9729;SDS011;4904;49.152;11.004;2022-08-19T03:45:00;22.65;;;20.58;;
9729;SDS011;4904;49.152;11.004;2022-08-19T03:47:27;24.13;;;21.92;;
9729;SDS011;4904;49.152;11.004;2022-08-19T03:49:55;23.55;;;21.35;;
9729;SDS011;4904;49.152;11.004;2022-08-19T03:52:22;23.70;;;21.45;;
9729;SDS011;4904;49.152;11.004;2022-08-19T03:54:50;25.00;;;22.73;;
9729;SDS011;4904;49.152;11.004;2022-08-19T03:57:17;25.02;;;22.73;;
9729;SDS011;4904;49.152;11.004;2022-08-19T03:59:44;23.95;;;21.75;;
9729;SDS011;4904;49.152;11.004;2022-08-19T04:02:11;24.20;;;22.00;;
9729;SDS011;4904;49.152;11.004;2022-08-19T04:04:41;23.00;;;21.00;;
9729;SDS011;4904;49.152;11.004;2022-08-19T04:07:09;23.92;;;21.77;;
9729;SDS011;4904;49.152;11.004;2022-08-19T04:09:37;22.30;;;20.33;;
9729;SDS011;4904;49.152;11.004;2022-08-19T04:12:06;23.58;;;21.45;;
9729;SDS011;4904;49.152;11.004;2022-08-19T04:14:34;23.33;;;21.13;;
9729;SDS011;4904;49.152;11.004;2022-08-19T04:17:01;22.63;;;20.73;;
9729;SDS011;4904;49.152;11.004;2022-08-19T04:19:30;23.23;;;21.02;;
9729;SDS011;4904;49.152;11.004;2022-08-19T04:21:57;23.10;;;21.10;;
9729;SDS011;4904;49.152;11.004;2022-08-19T04:24:24;23.55;;;21.38;;
9729;SDS011;4904;49.152;11.004;2022-08-19T04:26:51;24.67;;;22.48;;
9729;SDS011;4904;49.152;11.004;2022-08-19T04:29:22;22.95;;;21.00;;
9729;SDS011;4904;49.152;11.004;2022-08-19T04:31:52;23.77;;;21.67;;
9729;SDS011;4904;49.152;11.004;2022-08-19T04:34:20;23.30;;;21.20;;
9729;SDS011;4904;49.152;11.004;2022-08-19T04:36:49;21.83;;;19.83;;
9729;SDS011;4904;49.152;11.004;2022-08-19T04:39:18;22.75;;;20.73;;
9729;SDS011;4904;49.152;11.004;2022-08-19T04:41:46;21.83;;;19.98;;
9729;SDS011;4904;49.152;11.004;2022-08-19T04:44:33;21.20;;;19.40;;
9729;SDS011;4904;49.152;11.004;2022-08-19T04:47:02;22.88;;;20.90;;
9729;SDS011;4904;49.152;11.004;2022-08-19T04:49:30;22.90;;;20.80;;
9729;SDS011;4904;49.152;11.004;2022-08-19T04:51:59;21.80;;;19.90;;
9729;SDS011;4904;49.152;11.004;2022-08-19T04:54:25;23.15;;;21.02;;
9729;SDS011;4904;49.152;11.004;2022-08-19T04:56:53;22.20;;;20.27;;
9729;SDS011;4904;49.152;11.004;2022-08-19T04:59:20;22.48;;;20.15;;
9729;SDS011;4904;49.152;11.004;2022-08-19T05:01:49;21.92;;;19.92;;
9729;SDS011;4904;49.152;11.004;2022-08-19T05:04:17;21.52;;;19.63;;
9729;SDS011;4904;49.152;11.004;2022-08-19T05:06:45;22.48;;;20.48;;
9729;SDS011;4904;49.152;11.004;2022-08-19T05:09:13;21.67;;;19.75;;
9729;SDS011;4904;49.152;11.004;2022-08-19T05:11:42;20.92;;;19.02;;
9729;SDS011;4904;49.152;11.004;2022-08-19T05:14:10;21.23;;;19.10;;
9729;SDS011;4904;49.152;11.004;2022-08-19T05:16:38;21.33;;;19.52;;
9729;SDS011;4904;49.152;11.004;2022-08-19T05:19:10;20.80;;;19.00;;
9729;SDS011;4904;49.152;11.004;2022-08-19T05:21:54;22.42;;;20.23;;
9729;SDS011;4904;49.152;11.004;2022-08-19T05:24:38;21.10;;;19.20;;
9729;SDS011;4904;49.152;11.004;2022-08-19T05:27:05;22.23;;;20.20;;
9729;SDS011;4904;49.152;11.004;2022-08-19T05:29:32;22.13;;;20.13;;
9729;SDS011;4904;49.152;11.004;2022-08-19T05:32:00;22.25;;;20.25;;
9729;SDS011;4904;49.152;11.004;2022-08-19T05:34:31;22.13;;;20.00;;
9729;SDS011;4904;49.152;11.004;2022-08-19T05:36:58;22.15;;;20.13;;
9729;SDS011;4904;49.152;11.004;2022-08-19T05:39:28;20.95;;;19.17;;
9729;SDS011;4904;49.152;11.004;2022-08-19T05:41:56;21.80;;;19.75;;
9729;SDS011;4904;49.152;11.004;2022-08-19T05:44:25;22.77;;;20.75;;
9729;SDS011;4904;49.152;11.004;2022-08-19T05:46:56;21.77;;;19.88;;
9729;SDS011;4904;49.152;11.004;2022-08-19T05:49:24;20.98;;;19.13;;
9729;SDS011;4904;49.152;11.004;2022-08-19T05:51:53;23.15;;;20.95;;
9729;SDS011;4904;49.152;11.004;2022-08-19T05:54:21;21.55;;;19.45;;
9729;SDS011;4904;49.152;11.004;2022-08-19T05:56:49;22.83;;;20.70;;
9729;SDS011;4904;49.152;11.004;2022-08-19T05:59:17;21.25;;;19.38;;
9729;SDS011;4904;49.152;11.004;2022-08-19T06:01:48;21.95;;;19.95;;
9729;SDS011;4904;49.152;11.004;2022-08-19T06:04:17;21.33;;;19.33;;
9729;SDS011;4904;49.152;11.004;2022-08-19T06:06:44;21.02;;;19.23;;
9729;SDS011;4904;49.152;11.004;2022-08-19T06:09:14;22.42;;;20.23;;
9729;SDS011;4904;49.152;11.004;2022-08-19T06:11:42;22.75;;;20.45;;
9729;SDS011;4904;49.152;11.004;2022-08-19T06:14:11;20.88;;;19.02;;
9729;SDS011;4904;49.152;11.004;2022-08-19T06:16:41;20.45;;;18.58;;
9729;SDS011;4904;49.152;11.004;2022-08-19T06:19:10;21.50;;;19.48;;
9729;SDS011;4904;49.152;11.004;2022-08-19T06:21:39;21.17;;;19.20;;
9729;SDS011;4904;49.152;11.004;2022-08-19T06:24:09;20.27;;;18.38;;
9729;SDS011;4904;49.152;11.004;2022-08-19T06:26:40;21.02;;;19.13;;
9729;SDS011;4904;49.152;11.004;2022-08-19T06:29:09;21.25;;;19.35;;
9729;SDS011;4904;49.152;11.004;2022-08-19T06:31:40;20.15;;;18.35;;
9729;SDS011;4904;49.152;11.004;2022-08-19T06:34:08;20.67;;;18.88;;
9729;SDS011;4904;49.152;11.004;2022-08-19T06:36:36;20.23;;;18.23;;
9729;SDS011;4904;49.152;11.004;2022-08-19T06:39:07;20.13;;;18.33;;
9729;SDS011;4904;49.152;11.004;2022-08-19T06:41:36;20.52;;;18.63;;
9729;SDS011;4904;49.152;11.004;2022-08-19T06:44:06;19.67;;;17.88;;
9729;SDS011;4904;49.152;11.004;2022-08-19T06:46:33;20.70;;;18.63;;
9729;SDS011;4904;49.152;11.004;2022-08-19T06:49:02;21.65;;;19.45;;
9729;SDS011;4904;49.152;11.004;2022-08-19T06:51:29;20.63;;;18.63;;
9729;SDS011;4904;49.152;11.004;2022-08-19T06:53:59;21.80;;;19.83;;
9729;SDS011;4904;49.152;11.004;2022-08-19T06:56:28;21.35;;;19.40;;
9729;SDS011;4904;49.152;11.004;2022-08-19T06:58:58;19.85;;;18.08;;
9729;SDS011;4904;49.152;11.004;2022-08-19T07:01:27;20.65;;;18.45;;
9729;SDS011;4904;49.152;11.004;2022-08-19T07:03:54;23.15;;;20.85;;
9729;SDS011;4904;49.152;11.004;2022-08-19T07:06:21;21.95;;;19.85;;
9729;SDS011;4904;49.152;11.004;2022-08-19T07:08:48;22.67;;;20.42;;
9729;SDS011;4904;49.152;11.004;2022-08-19T07:11:16;22.67;;;20.63;;
9729;SDS011;4904;49.152;11.004;2022-08-19T07:13:44;22.48;;;20.33;;
9729;SDS011;4904;49.152;11.004;2022-08-19T07:16:14;22.33;;;20.02;;
9729;SDS011;4904;49.152;11.004;2022-08-19T07:18:45;22.92;;;20.73;;
9729;SDS011;4904;49.152;11.004;2022-08-19T07:21:14;23.17;;;21.02;;
9729;SDS011;4904;49.152;11.004;2022-08-19T07:23:43;23.65;;;21.35;;
9729;SDS011;4904;49.152;11.004;2022-08-19T07:26:11;23.33;;;21.15;;
9729;SDS011;4904;49.152;11.004;2022-08-19T07:28:41;23.27;;;21.10;;
9729;SDS011;4904;49.152;11.004;2022-08-19T07:31:10;22.00;;;19.85;;
9729;SDS011;4904;49.152;11.004;2022-08-19T07:33:37;23.70;;;21.30;;
9729;SDS011;4904;49.152;11.004;2022-08-19T07:36:08;22.52;;;20.20;;
9729;SDS011;4904;49.152;11.004;2022-08-19T07:38:37;23.00;;;20.67;;
9729;SDS011;4904;49.152;11.004;2022-08-19T07:41:05;23.48;;;21.27;;
9729;SDS011;4904;49.152;11.004;2022-08-19T07:43:32;21.95;;;19.88;;
9729;SDS011;4904;49.152;11.004;2022-08-19T07:45:59;22.80;;;20.70;;
9729;SDS011;4904;49.152;11.004;2022-08-19T07:48:27;22.05;;;19.95;;
9729;SDS011;4904;49.152;11.004;2022-08-19T07:50:54;24.20;;;21.60;;
9729;SDS011;4904;49.152;11.004;2022-08-19T07:53:27;22.60;;;20.48;;
9729;SDS011;4904;49.152;11.004;2022-08-19T07:55:55;22.83;;;20.50;;
9729;SDS011;4904;49.152;11.004;2022-08-19T07:58:24;23.83;;;21.70;;
9729;SDS011;4904;49.152;11.004;2022-08-19T08:00:52;23.10;;;20.77;;
9729;SDS011;4904;49.152;11.004;2022-08-19T08:03:19;22.23;;;19.95;;
9729;SDS011;4904;49.152;11.004;2022-08-19T08:06:08;22.13;;;20.02;;
9729;SDS011;4904;49.152;11.004;2022-08-19T08:09:03;24.95;;;22.05;;
9729;SDS011;4904;49.152;11.004;2022-08-19T08:11:37;24.25;;;21.77;;
9729;SDS011;4904;49.152;11.004;2022-08-19T08:14:05;21.90;;;19.80;;
9729;SDS011;4904;49.152;11.004;2022-08-19T08:16:33;22.58;;;20.38;;
9729;SDS011;4904;49.152;11.004;2022-08-19T08:19:03;21.50;;;19.60;;
9729;SDS011;4904;49.152;11.004;2022-08-19T08:21:31;22.30;;;20.20;;
9729;SDS011;4904;49.152;11.004;2022-08-19T08:23:59;21.25;;;19.25;;
9729;SDS011;4904;49.152;11.004;2022-08-19T08:26:27;21.20;;;19.27;;
9729;SDS011;4904;49.152;11.004;2022-08-19T08:28:54;20.48;;;18.58;;
9729;SDS011;4904;49.152;11.004;2022-08-19T08:31:21;21.10;;;19.10;;
9729;SDS011;4904;49.152;11.004;2022-08-19T08:33:48;20.88;;;18.77;;
9729;SDS011;4904;49.152;11.004;2022-08-19T08:36:16;20.40;;;18.38;;
9729;SDS011;4904;49.152;11.004;2022-08-19T08:38:43;20.58;;;18.73;;
9729;SDS011;4904;49.152;11.004;2022-08-19T08:41:13;19.35;;;17.65;;
9729;SDS011;4904;49.152;11.004;2022-08-19T08:43:49;20.08;;;18.27;;
9729;SDS011;4904;49.152;11.004;2022-08-19T08:46:19;18.98;;;17.05;;
9729;SDS011;4904;49.152;11.004;2022-08-19T08:48:51;18.83;;;17.00;;
9729;SDS011;4904;49.152;11.004;2022-08-19T08:51:25;17.83;;;16.13;;
9729;SDS011;4904;49.152;11.004;2022-08-19T08:53:55;17.02;;;15.50;;
9729;SDS011;4904;49.152;11.004;2022-08-19T08:56:22;18.23;;;16.42;;
9729;SDS011;4904;49.152;11.004;2022-08-19T08:58:54;18.15;;;16.23;;
9729;SDS011;4904;49.152;11.004;2022-08-19T09:01:24;18.35;;;16.55;;
9729;SDS011;4904;49.152;11.004;2022-08-19T09:03:52;16.40;;;14.95;;
9729;SDS011;4904;49.152;11.004;2022-08-19T09:06:22;16.95;;;15.45;;
9729;SDS011;4904;49.152;11.004;2022-08-19T09:08:57;16.48;;;14.88;;
9729;SDS011;4904;49.152;11.004;2022-08-19T09:11:32;15.88;;;14.38;;
9729;SDS011;4904;49.152;11.004;2022-08-19T09:14:10;15.82;;;14.52;;
9729;SDS011;4904;49.152;11.004;2022-08-19T09:16:50;16.50;;;15.07;;
9729;SDS011;4904;49.152;11.004;2022-08-19T09:19:17;15.20;;;13.80;;
9729;SDS011;4904;49.152;11.004;2022-08-19T09:21:44;15.25;;;13.95;;
9729;SDS011;4904;49.152;11.004;2022-08-19T09:24:11;16.05;;;14.55;;
9729;SDS011;4904;49.152;11.004;2022-08-19T09:26:38;15.23;;;13.70;;
9729;SDS011;4904;49.152;11.004;2022-08-19T09:29:05;13.95;;;12.70;;
9729;SDS011;4904;49.152;11.004;2022-08-19T09:31:33;14.27;;;13.07;;
9729;SDS011;4904;49.152;11.004;2022-08-19T09:34:00;14.73;;;13.30;;
9729;SDS011;4904;49.152;11.004;2022-08-19T09:36:29;14.10;;;12.88;;
9729;SDS011;4904;49.152;11.004;2022-08-19T09:38:58;14.18;;;12.98;;
9729;SDS011;4904;49.152;11.004;2022-08-19T09:41:26;14.13;;;12.93;;
9729;SDS011;4904;49.152;11.004;2022-08-19T09:43:53;14.27;;;13.07;;
9729;SDS011;4904;49.152;11.004;2022-08-19T09:46:25;14.73;;;13.43;;
9729;SDS011;4904;49.152;11.004;2022-08-19T09:48:56;14.88;;;13.57;;
9729;SDS011;4904;49.152;11.004;2022-08-19T09:51:25;14.45;;;13.13;;
9729;SDS011;4904;49.152;11.004;2022-08-19T09:53:54;17.35;;;15.85;;
9729;SDS011;4904;49.152;11.004;2022-08-19T09:56:24;18.02;;;16.17;;
9729;SDS011;4904;49.152;11.004;2022-08-19T09:58:51;19.13;;;17.23;;
9729;SDS011;4904;49.152;11.004;2022-08-19T10:01:19;21.25;;;19.13;;
9729;SDS011;4904;49.152;11.004;2022-08-19T10:03:48;20.15;;;17.55;;
9729;SDS011;4904;49.152;11.004;2022-08-19T10:06:18;18.58;;;16.85;;
9729;SDS011;4904;49.152;11.004;2022-08-19T10:08:46;29.95;;;27.08;;
9729;SDS011;4904;49.152;11.004;2022-08-19T10:11:13;18.83;;;17.13;;
9729;SDS011;4904;49.152;11.004;2022-08-19T10:13:42;18.70;;;17.00;;
9729;SDS011;4904;49.152;11.004;2022-08-19T10:16:11;19.38;;;17.45;;
9729;SDS011;4904;49.152;11.004;2022-08-19T10:18:39;18.30;;;16.65;;
9729;SDS011;4904;49.152;11.004;2022-08-19T10:21:08;17.38;;;15.88;;
9729;SDS011;4904;49.152;11.004;2022-08-19T10:23:38;18.35;;;16.65;;
9729;SDS011;4904;49.152;11.004;2022-08-19T10:26:08;18.92;;;17.13;;
9729;SDS011;4904;49.152;11.004;2022-08-19T10:28:36;18.42;;;16.67;;
9729;SDS011;4904;49.152;11.004;2022-08-19T10:31:04;18.55;;;16.90;;
9729;SDS011;4904;49.152;11.004;2022-08-19T10:33:32;18.15;;;16.48;;
9729;SDS011;4904;49.152;11.004;2022-08-19T10:36:00;17.60;;;16.00;;
9729;SDS011;4904;49.152;11.004;2022-08-19T10:38:29;19.02;;;17.23;;
9729;SDS011;4904;49.152;11.004;2022-08-19T10:40:57;18.42;;;16.75;;
9729;SDS011;4904;49.152;11.004;2022-08-19T10:43:32;18.90;;;17.10;;
9729;SDS011;4904;49.152;11.004;2022-08-19T10:46:02;19.95;;;18.15;;
9729;SDS011;4904;49.152;11.004;2022-08-19T10:48:30;19.85;;;17.90;;
9729;SDS011;4904;49.152;11.004;2022-08-19T10:50:58;19.35;;;17.42;;
9729;SDS011;4904;49.152;11.004;2022-08-19T10:53:42;18.88;;;17.08;;
9729;SDS011;4904;49.152;11.004;2022-08-19T10:56:10;18.45;;;16.73;;
9729;SDS011;4904;49.152;11.004;2022-08-19T10:58:55;19.00;;;17.20;;
9729;SDS011;4904;49.152;11.004;2022-08-19T11:01:23;19.27;;;17.58;;
9729;SDS011;4904;49.152;11.004;2022-08-19T11:03:50;18.15;;;16.40;;
9729;SDS011;4904;49.152;11.004;2022-08-19T11:06:17;18.50;;;16.80;;
9729;SDS011;4904;49.152;11.004;2022-08-19T11:08:45;18.88;;;17.15;;
9729;SDS011;4904;49.152;11.004;2022-08-19T11:11:13;20.92;;;18.77;;
9729;SDS011;4904;49.152;11.004;2022-08-19T11:13:41;20.50;;;18.60;;
9729;SDS011;4904;49.152;11.004;2022-08-19T11:16:10;21.95;;;19.63;;
9729;SDS011;4904;49.152;11.004;2022-08-19T11:18:40;20.67;;;18.77;;
9729;SDS011;4904;49.152;11.004;2022-08-19T11:21:10;19.73;;;17.85;;
9729;SDS011;4904;49.152;11.004;2022-08-19T11:23:39;20.50;;;18.50;;
9729;SDS011;4904;49.152;11.004;2022-08-19T11:26:06;22.50;;;20.10;;
9729;SDS011;4904;49.152;11.004;2022-08-19T11:28:35;21.30;;;19.30;;
9729;SDS011;4904;49.152;11.004;2022-08-19T11:31:02;21.15;;;19.15;;
9729;SDS011;4904;49.152;11.004;2022-08-19T11:33:29;21.52;;;19.42;;
9729;SDS011;4904;49.152;11.004;2022-08-19T11:35:57;21.10;;;18.90;;
9729;SDS011;4904;49.152;11.004;2022-08-19T11:38:25;22.95;;;20.08;;
9729;SDS011;4904;49.152;11.004;2022-08-19T11:40:56;21.30;;;19.20;;
9729;SDS011;4904;49.152;11.004;2022-08-19T11:43:24;22.17;;;20.08;;
9729;SDS011;4904;49.152;11.004;2022-08-19T11:45:53;22.38;;;20.33;;
9729;SDS011;4904;49.152;11.004;2022-08-19T11:48:21;23.88;;;21.58;;
9729;SDS011;4904;49.152;11.004;2022-08-19T11:50:48;23.42;;;21.13;;
9729;SDS011;4904;49.152;11.004;2022-08-19T11:53:16;25.02;;;22.40;;
9729;SDS011;4904;49.152;11.004;2022-08-19T11:55:43;25.55;;;22.88;;
9729;SDS011;4904;49.152;11.004;2022-08-19T11:58:10;26.00;;;23.45;;
9729;SDS011;4904;49.152;11.004;2022-08-19T12:00:38;25.02;;;22.17;;
9729;SDS011;4904;49.152;11.004;2022-08-19T12:03:07;28.45;;;25.55;;
9729;SDS011;4904;49.152;11.004;2022-08-19T12:05:35;28.40;;;25.63;;
9729;SDS011;4904;49.152;11.004;2022-08-19T12:08:02;26.52;;;23.88;;
9729;SDS011;4904;49.152;11.004;2022-08-19T12:10:30;27.42;;;24.50;;
9729;SDS011;4904;49.152;11.004;2022-08-19T12:12:57;26.77;;;24.27;;
9729;SDS011;4904;49.152;11.004;2022-08-19T12:15:24;26.60;;;24.10;;
9729;SDS011;4904;49.152;11.004;2022-08-19T12:17:52;27.42;;;24.63;;
9729;SDS011;4904;49.152;11.004;2022-08-19T12:20:23;25.55;;;23.23;;
9729;SDS011;4904;49.152;11.004;2022-08-19T12:22:51;26.80;;;24.10;;
9729;SDS011;4904;49.152;11.004;2022-08-19T12:25:18;32.72;;;29.40;;
9729;SDS011;4904;49.152;11.004;2022-08-19T12:27:45;26.98;;;24.38;;
9729;SDS011;4904;49.152;11.004;2022-08-19T12:30:12;27.08;;;24.38;;
9729;SDS011;4904;49.152;11.004;2022-08-19T12:32:40;26.60;;;24.10;;
9729;SDS011;4904;49.152;11.004;2022-08-19T12:35:07;25.35;;;22.95;;
9729;SDS011;4904;49.152;11.004;2022-08-19T12:37:36;26.58;;;23.88;;
9729;SDS011;4904;49.152;11.004;2022-08-19T12:40:07;25.23;;;22.83;;
9729;SDS011;4904;49.152;11.004;2022-08-19T12:42:36;25.17;;;22.88;;
9729;SDS011;4904;49.152;11.004;2022-08-19T12:45:06;26.30;;;23.77;;
9729;SDS011;4904;49.152;11.004;2022-08-19T12:47:33;26.38;;;23.73;;
9729;SDS011;4904;49.152;11.004;2022-08-19T12:50:00;26.48;;;24.08;;
9729;SDS011;4904;49.152;11.004;2022-08-19T12:52:27;25.63;;;23.10;;
9729;SDS011;4904;49.152;11.004;2022-08-19T12:54:56;27.73;;;24.77;;
9729;SDS011;4904;49.152;11.004;2022-08-19T12:57:23;27.35;;;24.65;;
9729;SDS011;4904;49.152;11.004;2022-08-19T12:59:52;27.58;;;24.83;;
9729;SDS011;4904;49.152;11.004;2022-08-19T13:02:19;27.88;;;24.92;;
9729;SDS011;4904;49.152;11.004;2022-08-19T13:04:47;26.05;;;23.30;;
9729;SDS011;4904;49.152;11.004;2022-08-19T13:07:14;26.80;;;23.85;;
9729;SDS011;4904;49.152;11.004;2022-08-19T13:09:41;26.00;;;23.40;;
9729;SDS011;4904;49.152;11.004;2022-08-19T13:12:09;25.73;;;23.23;;
9729;SDS011;4904;49.152;11.004;2022-08-19T13:14:38;26.48;;;23.92;;
9729;SDS011;4904;49.152;11.004;2022-08-19T13:17:05;26.45;;;23.98;;
9729;SDS011;4904;49.152;11.004;2022-08-19T13:19:32;26.38;;;23.73;;
9729;SDS011;4904;49.152;11.004;2022-08-19T13:21:59;26.77;;;24.25;;
9729;SDS011;4904;49.152;11.004;2022-08-19T13:24:26;26.23;;;23.40;;
9729;SDS011;4904;49.152;11.004;2022-08-19T13:26:53;26.20;;;23.60;;
9729;SDS011;4904;49.152;11.004;2022-08-19T13:29:21;27.10;;;24.50;;
9729;SDS011;4904;49.152;11.004;2022-08-19T13:32:05;24.67;;;22.38;;
9729;SDS011;4904;49.152;11.004;2022-08-19T13:34:50;24.65;;;22.45;;
9729;SDS011;4904;49.152;11.004;2022-08-19T13:37:17;23.90;;;21.60;;
9729;SDS011;4904;49.152;11.004;2022-08-19T13:40:04;22.20;;;20.00;;
9729;SDS011;4904;49.152;11.004;2022-08-19T13:42:32;23.20;;;20.88;;
9729;SDS011;4904;49.152;11.004;2022-08-19T13:45:00;21.23;;;19.42;;
9729;SDS011;4904;49.152;11.004;2022-08-19T13:47:28;22.27;;;20.15;;
9729;SDS011;4904;49.152;11.004;2022-08-19T13:49:55;22.48;;;20.38;;
9729;SDS011;4904;49.152;11.004;2022-08-19T13:52:21;23.30;;;21.10;;
9729;SDS011;4904;49.152;11.004;2022-08-19T13:54:50;23.42;;;21.13;;
9729;SDS011;4904;49.152;11.004;2022-08-19T13:57:16;23.63;;;21.45;;
9729;SDS011;4904;49.152;11.004;2022-08-19T13:59:43;22.77;;;20.65;;
9729;SDS011;4904;49.152;11.004;2022-08-19T14:02:12;22.50;;;20.38;;
9729;SDS011;4904;49.152;11.004;2022-08-19T14:04:38;28.73;;;26.23;;
9729;SDS011;4904;49.152;11.004;2022-08-19T14:07:05;24.60;;;22.33;;
9729;SDS011;4904;49.152;11.004;2022-08-19T14:09:32;38.90;;;35.25;;
9729;SDS011;4904;49.152;11.004;2022-08-19T14:11:59;25.05;;;22.65;;
9729;SDS011;4904;49.152;11.004;2022-08-19T14:14:26;23.98;;;21.77;;
9729;SDS011;4904;49.152;11.004;2022-08-19T14:16:54;23.85;;;21.55;;
9729;SDS011;4904;49.152;11.004;2022-08-19T14:19:22;23.02;;;20.83;;
9729;SDS011;4904;49.152;11.004;2022-08-19T14:21:49;20.98;;;18.88;;
9729;SDS011;4904;49.152;11.004;2022-08-19T14:24:16;18.48;;;16.92;;
9729;SDS011;4904;49.152;11.004;2022-08-19T14:26:43;19.15;;;17.33;;
9729;SDS011;4904;49.152;11.004;2022-08-19T14:29:10;18.90;;;17.30;;
9729;SDS011;4904;49.152;11.004;2022-08-19T14:31:37;19.58;;;17.88;;
9729;SDS011;4904;49.152;11.004;2022-08-19T14:34:07;19.05;;;17.25;;
9729;SDS011;4904;49.152;11.004;2022-08-19T14:36:36;18.65;;;16.75;;
9729;SDS011;4904;49.152;11.004;2022-08-19T14:39:04;17.35;;;15.82;;
9729;SDS011;4904;49.152;11.004;2022-08-19T14:41:31;16.55;;;15.05;;
9729;SDS011;4904;49.152;11.004;2022-08-19T14:43:58;16.10;;;14.77;;
9729;SDS011;4904;49.152;11.004;2022-08-19T14:46:27;15.82;;;14.52;;